createdAt,value
2019-01-08T00:01:43.431Z,79.64
2019-01-08T00:04:16.331Z,80.20
2019-01-08T00:06:48.648Z,79.99
2019-01-08T00:09:20.185Z,79.95
2019-01-08T00:11:50.748Z,79.67
2019-01-08T00:14:21.548Z,79.91
2019-01-08T00:16:52.041Z,79.73
2019-01-08T00:19:22.436Z,79.78
2019-01-08T00:21:52.837Z,80.19
2019-01-08T00:24:23.131Z,80.08
2019-01-08T00:26:54.316Z,80.28
2019-01-08T00:29:24.764Z,79.80
2019-01-08T00:31:55.089Z,79.98
2019-01-08T00:34:25.933Z,80.05
2019-01-08T00:36:56.242Z,79.75
2019-01-08T00:39:27.020Z,79.98
2019-01-08T00:41:57.907Z,80.12
2019-01-08T00:44:28.302Z,79.60
2019-01-08T00:46:58.680Z,79.48
2019-01-08T00:49:29.522Z,79.44
2019-01-08T00:51:59.874Z,79.54
2019-01-08T00:54:30.337Z,79.50
2019-01-08T00:57:01.663Z,79.48
2019-01-08T00:59:32.594Z,79.36
2019-01-08T01:02:03.889Z,79.40
2019-01-08T01:04:34.251Z,79.66
2019-01-08T01:07:04.647Z,79.64
2019-01-08T01:09:35.016Z,80.05
2019-01-08T01:12:05.292Z,80.47
2019-01-08T01:14:36.168Z,80.22
2019-01-08T01:17:07.058Z,80.42
2019-01-08T01:19:37.409Z,80.34
2019-01-08T01:22:07.804Z,79.92
2019-01-08T01:24:38.196Z,79.78
2019-01-08T01:27:08.489Z,79.58
2019-01-08T01:29:38.898Z,79.64
2019-01-08T01:32:09.241Z,79.61
2019-01-08T01:34:39.651Z,79.08
2019-01-08T01:37:10.088Z,79.07
2019-01-08T01:39:40.499Z,78.98
2019-01-08T01:42:10.770Z,78.78
2019-01-08T01:44:41.881Z,78.87
2019-01-08T01:47:12.231Z,79.15
2019-01-08T01:49:42.579Z,79.41
2019-01-08T01:52:12.989Z,79.60
2019-01-08T01:54:43.310Z,79.55
2019-01-08T01:57:13.676Z,79.82
2019-01-08T01:59:44.426Z,79.70
2019-01-08T02:02:14.836Z,79.62
2019-01-08T02:04:45.235Z,79.21
2019-01-08T02:07:16.012Z,79.59
2019-01-08T02:09:46.308Z,79.18
2019-01-08T02:12:16.652Z,79.53
2019-01-08T02:14:47.205Z,79.42
2019-01-08T02:17:17.577Z,79.13
2019-01-08T02:19:47.899Z,78.97
2019-01-08T02:22:38.737Z,79.35
2019-01-08T02:25:09.016Z,79.01
2019-01-08T02:27:39.418Z,78.85
2019-01-08T02:30:10.367Z,78.89
2019-01-08T02:32:41.202Z,78.78
2019-01-08T02:35:11.572Z,79.11
2019-01-08T02:37:41.852Z,78.63
2019-01-08T02:40:12.222Z,78.76
2019-01-08T02:42:42.580Z,78.41
2019-01-08T02:45:12.863Z,78.36
2019-01-08T02:47:43.256Z,78.47
2019-01-08T02:50:13.652Z,78.07
2019-01-08T02:52:44.379Z,78.38
2019-01-08T02:55:14.733Z,77.48
2019-01-08T02:57:45.722Z,77.70
2019-01-08T03:00:16.056Z,77.65
2019-01-08T03:02:46.439Z,77.38
2019-01-08T03:05:16.818Z,77.51
2019-01-08T03:07:47.066Z,77.30
2019-01-08T03:10:17.448Z,76.71
2019-01-08T03:12:48.907Z,76.93
2019-01-08T03:15:19.346Z,76.64
2019-01-08T03:17:49.617Z,76.38
2019-01-08T03:20:20.081Z,76.40
2019-01-08T03:22:50.886Z,75.98
2019-01-08T03:25:21.577Z,76.03
2019-01-08T03:27:51.961Z,75.97
2019-01-08T03:30:22.336Z,76.08
2019-01-08T03:32:52.969Z,76.36
2019-01-08T03:35:23.334Z,76.18
2019-01-08T03:37:53.703Z,76.83
2019-01-08T03:40:24.053Z,76.82
2019-01-08T03:42:54.421Z,77.04
2019-01-08T03:45:24.700Z,77.89
2019-01-08T03:47:55.091Z,78.45
2019-01-08T03:50:25.394Z,79.13
2019-01-08T03:52:55.852Z,79.44
2019-01-08T03:55:26.885Z,79.60
2019-01-08T03:57:58.799Z,79.33
2019-01-08T04:00:29.519Z,79.29
2019-01-08T04:03:00.789Z,79.42
2019-01-08T04:05:31.597Z,79.42
2019-01-08T04:08:01.918Z,79.36
2019-01-08T04:10:35.256Z,79.10
2019-01-08T04:13:05.956Z,78.93
2019-01-08T04:15:36.303Z,78.96
2019-01-08T04:18:06.631Z,79.11
2019-01-08T04:20:37.490Z,79.11
2019-01-08T04:23:07.930Z,78.80
2019-01-08T04:25:38.233Z,78.66
2019-01-08T04:28:08.645Z,78.60
2019-01-08T04:30:38.914Z,78.36
2019-01-08T04:33:09.286Z,78.65
2019-01-08T04:35:39.676Z,78.23
2019-01-08T04:38:10.113Z,78.35
2019-01-08T04:40:40.844Z,78.20
2019-01-08T04:43:13.938Z,78.30
2019-01-08T04:45:44.280Z,77.77
2019-01-08T04:48:14.597Z,78.24
2019-01-08T04:50:45.003Z,78.19
2019-01-08T04:53:15.315Z,77.76
2019-01-08T04:56:18.354Z,77.86
2019-01-08T04:58:49.022Z,78.23
2019-01-08T05:01:19.421Z,78.26
2019-01-08T05:03:49.827Z,78.04
2019-01-08T05:06:20.206Z,78.09
2019-01-08T05:08:51.017Z,77.69
2019-01-08T05:11:21.728Z,77.68
2019-01-08T05:13:52.007Z,77.74
2019-01-08T05:16:22.440Z,77.29
2019-01-08T05:18:53.808Z,77.00
2019-01-08T05:21:24.269Z,77.31
2019-01-08T05:23:55.021Z,76.05
2019-01-08T05:26:25.749Z,76.23
2019-01-08T05:28:56.188Z,76.59
2019-01-08T05:31:26.590Z,76.63
2019-01-08T05:33:56.993Z,75.60
2019-01-08T05:36:27.952Z,75.82
2019-01-08T05:38:58.663Z,75.53
2019-01-08T05:41:29.149Z,75.33
2019-01-08T05:43:59.467Z,75.30
2019-01-08T05:46:30.149Z,75.50
2019-01-08T05:49:00.621Z,75.38
2019-01-08T05:51:30.903Z,75.69
2019-01-08T05:54:01.748Z,75.70
2019-01-08T05:56:32.051Z,76.17
2019-01-08T05:59:03.274Z,76.21
2019-01-08T06:01:33.894Z,75.76
2019-01-08T06:04:04.838Z,75.98
2019-01-08T06:06:35.115Z,75.47
2019-01-08T06:09:06.718Z,74.67
2019-01-08T06:11:37.402Z,74.56
2019-01-08T06:14:11.398Z,74.49
2019-01-08T06:16:41.890Z,74.41
2019-01-08T06:19:12.272Z,74.38
2019-01-08T06:21:42.641Z,74.41
2019-01-08T06:24:12.971Z,74.05
2019-01-08T06:26:44.045Z,73.48
2019-01-08T06:29:14.382Z,73.93
2019-01-08T06:31:44.657Z,74.21
2019-01-08T06:34:15.024Z,74.90
2019-01-08T06:36:45.905Z,75.34
2019-01-08T06:39:16.204Z,75.54
2019-01-08T06:41:46.580Z,76.00
2019-01-08T06:44:17.464Z,76.29
2019-01-08T06:46:47.818Z,76.44
2019-01-08T06:49:19.092Z,76.52
2019-01-08T06:51:49.464Z,76.73
2019-01-08T06:54:19.862Z,76.30
2019-01-08T06:56:50.713Z,76.39
2019-01-08T06:59:21.091Z,76.10
2019-01-08T07:01:51.539Z,76.11
2019-01-08T07:04:21.887Z,75.88
2019-01-08T07:06:52.451Z,75.76
2019-01-08T07:09:22.770Z,75.64
2019-01-08T07:11:53.175Z,75.54
2019-01-08T07:14:23.593Z,74.94
2019-01-08T07:16:54.303Z,74.03
2019-01-08T07:19:24.647Z,73.84
2019-01-08T07:21:55.201Z,74.10
2019-01-08T07:24:27.585Z,73.54
2019-01-08T07:26:57.761Z,73.36
2019-01-08T07:30:00.851Z,73.75
2019-01-08T07:32:31.329Z,73.82
2019-01-08T07:35:01.750Z,73.42
2019-01-08T07:37:32.136Z,73.98
2019-01-08T07:40:02.523Z,73.00
2019-01-08T07:42:33.073Z,73.71
2019-01-08T07:45:04.309Z,73.19
2019-01-08T07:47:34.949Z,73.54
2019-01-08T07:50:05.517Z,73.43
2019-01-08T07:52:36.456Z,73.06
2019-01-08T07:55:06.972Z,73.16
2019-01-08T07:57:37.454Z,73.54
2019-01-08T08:00:08.505Z,73.89
2019-01-08T08:02:38.897Z,74.00
2019-01-08T08:05:09.783Z,73.30
2019-01-08T08:07:40.256Z,73.18
2019-01-08T08:10:10.618Z,72.10
2019-01-08T08:12:41.460Z,72.40
2019-01-08T08:15:14.046Z,71.70
2019-01-08T08:17:44.487Z,71.47
2019-01-08T08:20:14.918Z,71.65
2019-01-08T08:22:45.847Z,72.01
2019-01-08T08:25:19.617Z,73.07
2019-01-08T08:27:54.337Z,72.99
2019-01-08T08:30:26.279Z,73.85
2019-01-08T08:32:56.999Z,74.00
2019-01-08T08:35:27.360Z,74.22
2019-01-08T08:37:57.623Z,74.58
2019-01-08T08:40:28.348Z,74.87
2019-01-08T08:42:58.669Z,74.86
2019-01-08T08:45:29.071Z,74.86
2019-01-08T08:47:59.696Z,75.48
2019-01-08T08:50:30.120Z,76.00
2019-01-08T08:53:00.587Z,75.89
2019-01-08T08:55:31.312Z,75.94
2019-01-08T08:58:01.650Z,75.53
2019-01-08T09:00:32.097Z,75.55
2019-01-08T09:03:02.467Z,75.33
2019-01-08T09:05:33.015Z,75.42
2019-01-08T09:08:03.823Z,74.84
2019-01-08T09:10:34.352Z,74.96
2019-01-08T09:13:05.744Z,74.39
2019-01-08T09:15:36.151Z,74.98
2019-01-08T09:18:06.470Z,74.86
2019-01-08T09:20:37.189Z,74.25
2019-01-08T09:23:08.637Z,74.64
2019-01-08T09:25:39.533Z,74.33
2019-01-08T09:28:09.978Z,75.36
2019-01-08T09:30:40.333Z,75.10
2019-01-08T09:33:11.107Z,76.13
2019-01-08T09:35:41.442Z,75.75
2019-01-08T09:38:11.751Z,76.00
2019-01-08T09:40:42.655Z,76.10
2019-01-08T09:43:15.661Z,75.91
2019-01-08T09:45:46.440Z,76.37
2019-01-08T09:48:17.123Z,77.16
2019-01-08T09:50:54.072Z,76.83
2019-01-08T09:53:30.406Z,77.24
2019-01-08T09:56:03.991Z,76.37
2019-01-08T09:58:37.931Z,75.51
2019-01-08T10:01:09.075Z,75.81
2019-01-08T10:03:55.260Z,75.58
2019-01-08T10:06:25.769Z,74.69
2019-01-08T10:08:56.123Z,74.28
2019-01-08T10:11:26.496Z,74.99
2019-01-08T10:13:56.928Z,74.66
2019-01-08T10:16:27.274Z,74.50
2019-01-08T10:18:57.743Z,74.77
2019-01-08T10:21:28.138Z,74.36
2019-01-08T10:23:58.661Z,73.40
2019-01-08T10:26:29.026Z,73.40
2019-01-08T10:28:59.329Z,73.62
2019-01-08T10:31:32.527Z,73.61
2019-01-08T10:34:01.785Z,73.07
2019-01-08T10:36:32.238Z,73.49
2019-01-08T10:39:02.550Z,73.91
2019-01-08T10:41:32.962Z,73.21
2019-01-08T10:44:03.337Z,73.07
2019-01-08T10:46:37.598Z,72.94
2019-01-08T10:49:06.267Z,73.28
2019-01-08T10:51:37.204Z,72.48
2019-01-08T10:54:07.702Z,71.72
2019-01-08T10:56:38.167Z,71.58
2019-01-08T10:59:09.055Z,70.82
2019-01-08T11:01:40.612Z,70.27
2019-01-08T11:04:11.270Z,70.50
2019-01-08T11:06:41.692Z,70.65
2019-01-08T11:09:13.363Z,70.74
2019-01-08T11:11:43.790Z,71.50
2019-01-08T11:14:14.185Z,72.10
2019-01-08T11:16:44.542Z,73.61
2019-01-08T11:19:15.426Z,74.38
2019-01-08T11:21:46.460Z,75.32
2019-01-08T11:24:16.897Z,76.38
2019-01-08T11:26:47.255Z,77.07
2019-01-08T11:29:17.783Z,77.94
2019-01-08T11:31:57.577Z,77.80
2019-01-08T11:34:27.981Z,78.85
2019-01-08T11:36:58.465Z,78.62
2019-01-08T11:39:28.950Z,77.71
2019-01-08T11:41:59.597Z,77.47
2019-01-08T11:44:30.029Z,77.74
2019-01-08T11:47:00.440Z,77.01
2019-01-08T11:49:30.826Z,76.40
2019-01-08T11:52:01.262Z,76.49
2019-01-08T11:54:40.896Z,76.47
2019-01-08T11:57:07.646Z,76.07
2019-01-08T11:59:38.287Z,75.16
2019-01-08T12:02:08.895Z,75.40
2019-01-08T12:04:39.789Z,75.21
2019-01-08T12:07:10.848Z,75.18
2019-01-08T12:09:41.241Z,74.97
2019-01-08T12:12:11.537Z,74.67
2019-01-08T12:14:44.083Z,75.42
2019-01-08T12:17:15.087Z,75.29
2019-01-08T12:19:45.490Z,74.76
2019-01-08T12:22:16.322Z,74.25
2019-01-08T12:24:46.822Z,74.60
2019-01-08T12:27:17.450Z,73.57
2019-01-08T12:29:47.863Z,73.35
2019-01-08T12:32:21.643Z,73.30
2019-01-08T12:34:52.241Z,72.53
2019-01-08T12:37:47.900Z,72.13
2019-01-08T12:40:18.208Z,72.97
2019-01-08T12:42:50.843Z,72.97
2019-01-08T12:45:21.162Z,72.73
2019-01-08T12:47:51.558Z,73.26
2019-01-08T12:50:22.611Z,72.68
2019-01-08T12:52:53.047Z,72.93
2019-01-08T12:55:23.396Z,73.43
2019-01-08T12:57:54.212Z,72.20
2019-01-08T13:00:24.713Z,72.18
2019-01-08T13:02:56.332Z,72.28
2019-01-08T13:05:27.295Z,72.70
2019-01-08T13:07:58.325Z,71.79
2019-01-08T13:10:29.236Z,72.02
2019-01-08T13:12:59.876Z,72.70
2019-01-08T13:15:30.834Z,71.42
2019-01-08T13:18:01.391Z,71.33
2019-01-08T13:20:32.480Z,72.20
2019-01-08T13:23:03.021Z,71.37
2019-01-08T13:25:33.552Z,71.81
2019-01-08T13:28:04.579Z,71.09
2019-01-08T13:30:35.096Z,72.62
2019-01-08T13:33:05.586Z,73.73
2019-01-08T13:35:39.078Z,75.65
2019-01-08T13:38:09.722Z,75.59
2019-01-08T13:40:41.657Z,77.47
2019-01-08T13:43:12.130Z,77.31
2019-01-08T13:45:43.212Z,77.83
2019-01-08T13:48:17.168Z,78.15
2019-01-08T13:50:47.629Z,78.22
2019-01-08T13:56:07.764Z,78.48
2019-01-08T13:58:39.466Z,77.46
2019-01-08T14:01:12.850Z,77.56
2019-01-08T14:03:43.217Z,77.42
2019-01-08T14:06:13.739Z,77.54
2019-01-08T14:08:45.286Z,77.94
2019-01-08T14:11:15.890Z,78.24
2019-01-08T14:13:46.374Z,79.52
2019-01-08T14:16:17.057Z,79.47
2019-01-08T14:18:50.191Z,79.21
2019-01-08T14:21:21.046Z,79.11
2019-01-08T14:23:52.182Z,79.41
2019-01-08T14:26:22.904Z,79.56
2019-01-08T14:28:53.493Z,79.82
2019-01-08T14:31:23.898Z,79.93
2019-01-08T14:33:54.992Z,79.79
2019-01-08T14:36:25.387Z,80.10
2019-01-08T14:38:55.743Z,79.58
2019-01-08T14:41:26.189Z,78.92
2019-01-08T14:43:58.278Z,79.08
2019-01-08T14:46:30.384Z,78.74
2019-01-08T14:49:00.840Z,78.43
2019-01-08T14:51:31.423Z,77.40
2019-01-08T14:54:04.577Z,77.35
2019-01-08T14:56:49.580Z,77.09
2019-01-08T14:59:20.145Z,77.31
2019-01-08T15:01:51.598Z,75.91
2019-01-08T15:04:22.192Z,76.06
2019-01-08T15:06:52.469Z,76.19
2019-01-08T15:09:23.305Z,75.98
2019-01-08T15:11:54.776Z,76.30
2019-01-08T15:14:25.174Z,76.71
2019-01-08T15:16:57.073Z,76.69
2019-01-08T15:19:27.420Z,76.68
2019-01-08T15:21:57.881Z,77.07
2019-01-08T15:24:28.225Z,77.05
2019-01-08T15:27:00.752Z,76.51
2019-01-08T15:29:31.097Z,76.24
2019-01-08T15:32:01.601Z,75.71
2019-01-08T15:34:32.054Z,75.73
2019-01-08T15:37:02.979Z,75.70
2019-01-08T15:39:34.365Z,76.02
2019-01-08T15:42:07.774Z,75.87
2019-01-08T15:44:39.129Z,75.36
2019-01-08T15:47:09.516Z,75.53
2019-01-08T15:49:43.441Z,74.97
2019-01-08T15:52:13.812Z,74.53
2019-01-08T15:54:44.156Z,74.34
2019-01-08T15:57:14.678Z,74.71
2019-01-08T15:59:45.006Z,74.80
2019-01-08T16:02:15.923Z,74.23
2019-01-08T16:04:46.232Z,74.52
2019-01-08T16:07:16.694Z,74.61
2019-01-08T16:09:48.812Z,74.96
2019-01-08T16:12:19.892Z,74.56
2019-01-08T16:14:50.798Z,74.58
2019-01-08T16:17:21.202Z,72.98
2019-01-08T16:19:51.570Z,73.12
2019-01-08T16:22:22.373Z,73.06
2019-01-08T16:24:52.987Z,72.55
2019-01-08T16:30:29.991Z,73.22
2019-01-08T16:33:01.594Z,73.23
2019-01-08T16:35:33.221Z,73.54
2019-01-08T16:38:03.708Z,72.92
2019-01-08T16:40:34.142Z,72.77
2019-01-08T16:43:08.839Z,72.34
2019-01-08T16:45:39.443Z,73.03
2019-01-08T16:48:11.168Z,73.06
2019-01-08T16:50:44.020Z,72.89
2019-01-08T16:53:16.453Z,72.41
2019-01-08T16:55:47.088Z,72.20
2019-01-08T16:58:18.782Z,72.32
2019-01-08T17:00:50.210Z,72.36
2019-01-08T17:03:25.583Z,72.66
2019-01-08T17:05:54.066Z,72.16
2019-01-08T17:08:26.289Z,72.67
2019-01-08T17:10:56.670Z,72.72
2019-01-08T17:13:27.622Z,73.40
2019-01-08T17:15:58.340Z,74.40
2019-01-08T17:18:28.751Z,73.99
2019-01-08T17:21:01.193Z,73.99
2019-01-08T17:23:31.602Z,74.37
2019-01-08T17:26:02.297Z,75.00
2019-01-08T17:28:32.770Z,74.88
2019-01-08T17:31:03.420Z,74.96
2019-01-08T17:33:34.340Z,75.00
2019-01-08T17:36:04.648Z,74.95
2019-01-08T17:38:36.181Z,75.87
2019-01-08T17:41:07.021Z,76.28
2019-01-08T17:43:37.488Z,75.86
2019-01-08T17:46:10.203Z,76.41
2019-01-08T17:48:41.278Z,76.38
2019-01-08T17:51:12.301Z,75.89
2019-01-08T17:53:43.295Z,77.31
2019-01-08T17:56:13.796Z,77.68
2019-01-08T17:58:46.161Z,78.52
2019-01-08T18:01:30.573Z,78.56
2019-01-08T18:04:00.925Z,78.64
2019-01-08T18:06:31.538Z,77.88
2019-01-08T18:09:02.413Z,77.33
2019-01-08T18:11:34.832Z,76.74
2019-01-08T18:14:05.361Z,76.59
2019-01-08T18:16:35.982Z,76.26
2019-01-08T18:19:07.097Z,76.14
2019-01-08T18:21:37.995Z,75.38
2019-01-08T18:24:08.376Z,75.85
2019-01-08T18:26:40.126Z,75.61
2019-01-08T18:29:12.754Z,75.24
2019-01-08T18:31:43.345Z,75.57
2019-01-08T18:34:14.107Z,75.83
2019-01-08T18:36:44.832Z,75.53
2019-01-08T18:39:15.212Z,75.12
2019-01-08T18:41:50.013Z,76.03
2019-01-08T18:44:21.119Z,76.49
2019-01-08T18:46:52.026Z,78.04
2019-01-08T18:49:24.075Z,79.30
2019-01-08T18:51:55.982Z,79.54
2019-01-08T18:54:28.188Z,80.01
2019-01-08T18:56:58.871Z,80.40
2019-01-08T18:59:29.197Z,80.64
2019-01-08T19:01:59.579Z,81.14
2019-01-08T19:04:29.922Z,81.40
2019-01-08T19:07:00.285Z,80.84
2019-01-08T19:09:41.217Z,80.63
2019-01-08T19:12:20.795Z,80.56
2019-01-08T19:14:51.961Z,80.05
2019-01-08T19:17:22.828Z,79.61
2019-01-08T19:19:53.646Z,80.06
2019-01-08T19:22:24.213Z,80.43
2019-01-08T19:24:59.713Z,80.61
2019-01-08T19:27:30.497Z,81.19
2019-01-08T19:30:00.952Z,82.07
2019-01-08T19:32:35.795Z,82.31
2019-01-08T19:35:06.241Z,82.59
2019-01-08T19:37:36.527Z,82.19
2019-01-08T19:40:07.540Z,82.46
2019-01-08T19:42:38.402Z,81.75
2019-01-08T19:45:09.429Z,81.12
2019-01-08T19:47:39.870Z,81.58
2019-01-08T19:50:14.378Z,81.58
2019-01-08T19:52:44.773Z,81.64
2019-01-08T19:55:15.064Z,82.07
2019-01-08T19:57:46.560Z,82.34
2019-01-08T20:00:17.025Z,82.47
2019-01-08T20:02:47.657Z,81.57
2019-01-08T20:05:18.697Z,80.79
2019-01-08T20:07:49.585Z,79.62
2019-01-08T20:10:20.002Z,79.96
2019-01-08T20:12:50.344Z,79.42
2019-01-08T20:15:20.771Z,79.77
2019-01-08T20:18:26.233Z,79.68
2019-01-08T20:20:56.894Z,79.36
2019-01-08T20:23:27.386Z,79.00
2019-01-08T20:25:57.836Z,79.50
2019-01-08T20:28:28.277Z,79.43
2019-01-08T20:31:00.206Z,79.35
2019-01-08T20:33:30.643Z,78.93
2019-01-08T20:36:03.372Z,78.83
2019-01-08T20:38:33.733Z,78.27
2019-01-08T20:41:04.062Z,77.89
2019-01-08T20:43:35.037Z,77.38
2019-01-08T20:46:06.572Z,75.91
2019-01-08T20:48:40.942Z,75.91
2019-01-08T20:51:12.874Z,76.00
2019-01-08T20:53:46.464Z,75.42
2019-01-08T20:56:20.905Z,75.13
2019-01-08T20:58:51.388Z,74.28
2019-01-08T21:01:22.372Z,74.27
2019-01-08T21:03:53.004Z,74.02
2019-01-08T21:06:23.354Z,74.59
2019-01-08T21:08:53.784Z,74.54
2019-01-08T21:11:24.169Z,73.85
2019-01-08T21:13:57.960Z,74.22
2019-01-08T21:16:28.828Z,74.51
2019-01-08T21:18:59.341Z,73.40
2019-01-08T21:21:29.861Z,73.71
2019-01-08T21:24:07.925Z,74.81
2019-01-08T21:26:38.387Z,74.76
2019-01-08T21:29:20.430Z,74.90
2019-01-08T21:31:50.794Z,74.90
2019-01-08T21:37:15.960Z,76.29
2019-01-08T21:39:46.264Z,76.10
2019-01-08T21:42:16.872Z,77.53
2019-01-08T21:44:47.761Z,78.04
2019-01-08T21:47:18.914Z,78.28
2019-01-08T21:49:50.053Z,78.13
2019-01-08T21:52:20.670Z,78.69
2019-01-08T21:54:51.068Z,78.37
2019-01-08T21:57:22.217Z,78.59
2019-01-08T21:59:52.642Z,79.06
2019-01-08T22:02:24.638Z,78.75
2019-01-08T22:04:55.573Z,78.76
2019-01-08T22:07:25.947Z,79.01
2019-01-08T22:09:56.893Z,79.48
2019-01-08T22:12:27.320Z,79.67
2019-01-08T22:15:00.504Z,79.35
2019-01-08T22:17:30.971Z,79.71
2019-01-08T22:20:01.781Z,80.40
2019-01-08T22:22:32.616Z,80.31
2019-01-08T22:25:02.908Z,80.40
2019-01-08T22:27:33.822Z,80.78
2019-01-08T22:30:04.762Z,81.14
2019-01-08T22:32:36.180Z,81.72
2019-01-08T22:35:06.959Z,81.75
2019-01-08T22:37:37.878Z,82.20
2019-01-08T22:40:10.209Z,82.48
2019-01-08T22:42:41.065Z,83.64
2019-01-08T22:45:11.426Z,83.89
2019-01-08T22:47:41.868Z,84.50
2019-01-08T22:50:17.076Z,84.57
2019-01-08T22:52:48.276Z,84.78
2019-01-08T22:55:19.648Z,84.83
2019-01-08T22:57:50.150Z,85.05
2019-01-08T23:00:39.184Z,85.13
2019-01-08T23:03:10.339Z,85.12
2019-01-08T23:05:41.064Z,85.25
2019-01-08T23:08:12.068Z,85.24
2019-01-08T23:10:42.552Z,85.29
2019-01-08T23:13:13.055Z,85.12
2019-01-08T23:15:44.236Z,84.99
2019-01-08T23:18:14.610Z,84.97
2019-01-08T23:20:49.140Z,84.63
2019-01-08T23:23:19.500Z,84.73
2019-01-08T23:25:49.915Z,84.45
2019-01-08T23:28:20.430Z,84.43
2019-01-08T23:30:50.866Z,84.27
2019-01-08T23:33:21.346Z,84.70
2019-01-08T23:35:52.197Z,84.61
2019-01-08T23:38:25.216Z,84.73
2019-01-08T23:40:55.535Z,84.50
2019-01-08T23:43:25.900Z,84.28
2019-01-08T23:45:56.356Z,84.29
2019-01-08T23:48:26.714Z,84.18
2019-01-08T23:50:57.823Z,84.42
2019-01-08T23:53:40.661Z,84.12
2019-01-08T23:56:11.912Z,84.44
2019-01-08T23:58:42.746Z,84.06
